sensor_id;sensor_type;location;lat;lon;timestamp;temperature;humidity
21459;DHT22;10891;49.350;19.386;2023-03-29T00:00:18;-11.10;99.90
21459;DHT22;10891;49.350;19.386;2023-03-29T00:02:45;-11.20;99.90
21459;DHT22;10891;49.350;19.386;2023-03-29T00:05:14;-11.40;99.90
21459;DHT22;10891;49.350;19.386;2023-03-29T00:07:41;-11.30;99.90
21459;DHT22;10891;49.350;19.386;2023-03-29T00:10:10;-11.30;99.90
21459;DHT22;10891;49.350;19.386;2023-03-29T00:12:38;-11.40;99.90
21459;DHT22;10891;49.350;19.386;2023-03-29T00:15:07;-11.40;99.90
21459;DHT22;10891;49.350;19.386;2023-03-29T00:17:34;-11.40;99.90
21459;DHT22;10891;49.350;19.386;2023-03-29T00:20:01;-11.50;99.90
21459;DHT22;10891;49.350;19.386;2023-03-29T00:22:29;-11.60;99.90
21459;DHT22;10891;49.350;19.386;2023-03-29T00:24:56;-11.80;99.90
21459;DHT22;10891;49.350;19.386;2023-03-29T00:27:23;-11.80;99.90
21459;DHT22;10891;49.350;19.386;2023-03-29T00:29:50;-11.90;99.90
21459;DHT22;10891;49.350;19.386;2023-03-29T00:32:18;-11.90;99.90
21459;DHT22;10891;49.350;19.386;2023-03-29T00:34:45;-11.90;99.90
21459;DHT22;10891;49.350;19.386;2023-03-29T00:37:15;-12.00;99.90
21459;DHT22;10891;49.350;19.386;2023-03-29T00:39:43;-12.00;99.90
21459;DHT22;10891;49.350;19.386;2023-03-29T00:42:11;-12.10;99.90
21459;DHT22;10891;49.350;19.386;2023-03-29T00:45:01;-12.20;99.90
21459;DHT22;10891;49.350;19.386;2023-03-29T00:47:33;-12.20;99.90
21459;DHT22;10891;49.350;19.386;2023-03-29T00:50:05;-12.40;99.90
21459;DHT22;10891;49.350;19.386;2023-03-29T00:52:34;-12.40;99.90
21459;DHT22;10891;49.350;19.386;2023-03-29T00:55:08;-12.30;99.90
21459;DHT22;10891;49.350;19.386;2023-03-29T00:57:38;-12.50;99.90
21459;DHT22;10891;49.350;19.386;2023-03-29T01:00:07;-12.60;99.90
21459;DHT22;10891;49.350;19.386;2023-03-29T01:02:37;-12.50;99.90
21459;DHT22;10891;49.350;19.386;2023-03-29T01:05:07;-12.40;99.90
21459;DHT22;10891;49.350;19.386;2023-03-29T01:07:40;-12.50;99.90
21459;DHT22;10891;49.350;19.386;2023-03-29T01:10:15;-12.50;99.90
21459;DHT22;10891;49.350;19.386;2023-03-29T01:12:48;-12.50;99.90
21459;DHT22;10891;49.350;19.386;2023-03-29T01:15:18;-12.50;99.90
21459;DHT22;10891;49.350;19.386;2023-03-29T01:17:47;-12.50;99.90
21459;DHT22;10891;49.350;19.386;2023-03-29T01:20:20;-12.50;99.90
21459;DHT22;10891;49.350;19.386;2023-03-29T01:23:06;-12.40;99.90
21459;DHT22;10891;49.350;19.386;2023-03-29T01:25:48;-12.40;99.90
21459;DHT22;10891;49.350;19.386;2023-03-29T01:28:21;-12.40;99.90
21459;DHT22;10891;49.350;19.386;2023-03-29T01:30:53;-12.40;99.90
21459;DHT22;10891;49.350;19.386;2023-03-29T01:33:24;-12.40;99.90
21459;DHT22;10891;49.350;19.386;2023-03-29T01:35:56;-12.40;99.90
21459;DHT22;10891;49.350;19.386;2023-03-29T01:38:29;-12.40;99.90
21459;DHT22;10891;49.350;19.386;2023-03-29T01:40:57;-12.40;99.90
21459;DHT22;10891;49.350;19.386;2023-03-29T01:43:30;-12.50;99.90
21459;DHT22;10891;49.350;19.386;2023-03-29T01:46:04;-12.60;99.90
21459;DHT22;10891;49.350;19.386;2023-03-29T01:48:39;-12.60;99.90
21459;DHT22;10891;49.350;19.386;2023-03-29T01:51:12;-12.70;99.90
21459;DHT22;10891;49.350;19.386;2023-03-29T01:53:43;-12.70;99.90
21459;DHT22;10891;49.350;19.386;2023-03-29T01:56:15;-12.70;99.90
21459;DHT22;10891;49.350;19.386;2023-03-29T01:58:47;-12.70;99.90
21459;DHT22;10891;49.350;19.386;2023-03-29T02:01:17;-12.70;99.90
21459;DHT22;10891;49.350;19.386;2023-03-29T02:03:48;-12.70;99.90
21459;DHT22;10891;49.350;19.386;2023-03-29T02:06:22;-12.80;99.90
21459;DHT22;10891;49.350;19.386;2023-03-29T02:08:52;-12.80;99.90
21459;DHT22;10891;49.350;19.386;2023-03-29T02:11:20;-12.90;99.90
21459;DHT22;10891;49.350;19.386;2023-03-29T02:13:50;-13.00;99.90
21459;DHT22;10891;49.350;19.386;2023-03-29T02:16:17;-13.00;99.90
21459;DHT22;10891;49.350;19.386;2023-03-29T02:18:47;-13.10;99.90
21459;DHT22;10891;49.350;19.386;2023-03-29T02:21:18;-13.10;99.90
21459;DHT22;10891;49.350;19.386;2023-03-29T02:23:48;-13.20;99.90
21459;DHT22;10891;49.350;19.386;2023-03-29T02:26:15;-13.20;99.90
21459;DHT22;10891;49.350;19.386;2023-03-29T02:28:44;-13.20;99.90
21459;DHT22;10891;49.350;19.386;2023-03-29T02:31:15;-13.20;99.90
21459;DHT22;10891;49.350;19.386;2023-03-29T02:33:47;-13.30;99.90
21459;DHT22;10891;49.350;19.386;2023-03-29T02:36:18;-13.40;99.90
21459;DHT22;10891;49.350;19.386;2023-03-29T02:38:48;-13.40;99.90
21459;DHT22;10891;49.350;19.386;2023-03-29T02:41:15;-13.30;99.90
21459;DHT22;10891;49.350;19.386;2023-03-29T02:43:43;-13.40;99.90
21459;DHT22;10891;49.350;19.386;2023-03-29T02:46:13;-13.40;99.90
21459;DHT22;10891;49.350;19.386;2023-03-29T02:48:43;-13.40;99.90
21459;DHT22;10891;49.350;19.386;2023-03-29T02:51:16;-13.60;99.90
21459;DHT22;10891;49.350;19.386;2023-03-29T02:53:48;-13.70;99.90
21459;DHT22;10891;49.350;19.386;2023-03-29T02:56:17;-13.80;99.90
21459;DHT22;10891;49.350;19.386;2023-03-29T02:58:44;-13.80;99.90
21459;DHT22;10891;49.350;19.386;2023-03-29T03:01:14;-13.70;99.90
21459;DHT22;10891;49.350;19.386;2023-03-29T03:03:42;-13.80;99.90
21459;DHT22;10891;49.350;19.386;2023-03-29T03:06:09;-13.90;99.90
21459;DHT22;10891;49.350;19.386;2023-03-29T03:08:36;-13.90;99.90
21459;DHT22;10891;49.350;19.386;2023-03-29T03:11:04;-13.90;99.90
21459;DHT22;10891;49.350;19.386;2023-03-29T03:13:31;-14.00;99.90
21459;DHT22;10891;49.350;19.386;2023-03-29T03:15:58;-14.10;99.90
21459;DHT22;10891;49.350;19.386;2023-03-29T03:18:27;-14.10;99.90
21459;DHT22;10891;49.350;19.386;2023-03-29T03:20:54;-14.20;99.90
21459;DHT22;10891;49.350;19.386;2023-03-29T03:23:21;-14.20;99.90
21459;DHT22;10891;49.350;19.386;2023-03-29T03:25:49;-14.20;99.90
21459;DHT22;10891;49.350;19.386;2023-03-29T03:28:17;-14.20;99.90
21459;DHT22;10891;49.350;19.386;2023-03-29T03:30:44;-14.20;99.90
21459;DHT22;10891;49.350;19.386;2023-03-29T03:33:10;-14.20;99.90
21459;DHT22;10891;49.350;19.386;2023-03-29T03:35:39;-14.20;99.90
21459;DHT22;10891;49.350;19.386;2023-03-29T03:38:06;-14.20;99.90
21459;DHT22;10891;49.350;19.386;2023-03-29T03:40:35;-14.20;99.90
21459;DHT22;10891;49.350;19.386;2023-03-29T03:43:02;-14.10;99.90
21459;DHT22;10891;49.350;19.386;2023-03-29T03:45:29;-14.10;99.90
21459;DHT22;10891;49.350;19.386;2023-03-29T03:47:56;-14.30;99.90
21459;DHT22;10891;49.350;19.386;2023-03-29T03:50:23;-14.50;99.90
21459;DHT22;10891;49.350;19.386;2023-03-29T03:52:51;-14.60;99.90
21459;DHT22;10891;49.350;19.386;2023-03-29T03:55:18;-14.70;99.90
21459;DHT22;10891;49.350;19.386;2023-03-29T03:57:46;-14.80;99.90
21459;DHT22;10891;49.350;19.386;2023-03-29T04:00:13;-14.90;99.90
21459;DHT22;10891;49.350;19.386;2023-03-29T04:02:45;-14.90;99.90
21459;DHT22;10891;49.350;19.386;2023-03-29T04:05:13;-15.00;99.90
21459;DHT22;10891;49.350;19.386;2023-03-29T04:07:39;-14.90;99.90
21459;DHT22;10891;49.350;19.386;2023-03-29T04:10:09;-14.90;99.90
21459;DHT22;10891;49.350;19.386;2023-03-29T04:12:36;-14.80;99.90
21459;DHT22;10891;49.350;19.386;2023-03-29T04:15:04;-14.90;99.90
21459;DHT22;10891;49.350;19.386;2023-03-29T04:17:31;-15.00;99.90
21459;DHT22;10891;49.350;19.386;2023-03-29T04:19:58;-14.90;99.90
21459;DHT22;10891;49.350;19.386;2023-03-29T04:22:26;-14.80;99.90
21459;DHT22;10891;49.350;19.386;2023-03-29T04:24:53;-14.80;99.90
21459;DHT22;10891;49.350;19.386;2023-03-29T04:27:22;-14.70;99.90
21459;DHT22;10891;49.350;19.386;2023-03-29T04:29:48;-14.80;99.90
21459;DHT22;10891;49.350;19.386;2023-03-29T04:32:15;-14.80;99.90
21459;DHT22;10891;49.350;19.386;2023-03-29T04:34:43;-14.80;99.90
21459;DHT22;10891;49.350;19.386;2023-03-29T04:37:10;-14.80;99.90
21459;DHT22;10891;49.350;19.386;2023-03-29T04:39:37;-14.70;99.90
21459;DHT22;10891;49.350;19.386;2023-03-29T04:42:04;-14.60;99.90
21459;DHT22;10891;49.350;19.386;2023-03-29T04:44:33;-14.60;99.90
21459;DHT22;10891;49.350;19.386;2023-03-29T04:47:02;-14.70;99.90
21459;DHT22;10891;49.350;19.386;2023-03-29T04:49:29;-14.60;99.90
21459;DHT22;10891;49.350;19.386;2023-03-29T04:51:57;-14.50;99.90
21459;DHT22;10891;49.350;19.386;2023-03-29T04:54:25;-14.40;99.90
21459;DHT22;10891;49.350;19.386;2023-03-29T04:56:52;-14.30;99.90
21459;DHT22;10891;49.350;19.386;2023-03-29T04:59:19;-14.20;99.90
21459;DHT22;10891;49.350;19.386;2023-03-29T05:01:47;-14.00;99.90
21459;DHT22;10891;49.350;19.386;2023-03-29T05:04:14;-14.00;99.90
21459;DHT22;10891;49.350;19.386;2023-03-29T05:06:43;-13.90;99.90
21459;DHT22;10891;49.350;19.386;2023-03-29T05:09:10;-13.80;99.90
21459;DHT22;10891;49.350;19.386;2023-03-29T05:11:36;-13.70;99.90
21459;DHT22;10891;49.350;19.386;2023-03-29T05:14:03;-13.60;99.90
21459;DHT22;10891;49.350;19.386;2023-03-29T05:16:32;-13.40;99.90
21459;DHT22;10891;49.350;19.386;2023-03-29T05:19:00;-13.30;99.90
21459;DHT22;10891;49.350;19.386;2023-03-29T05:21:27;-13.10;99.90
21459;DHT22;10891;49.350;19.386;2023-03-29T05:23:54;-12.90;99.90
21459;DHT22;10891;49.350;19.386;2023-03-29T05:26:21;-12.80;99.90
21459;DHT22;10891;49.350;19.386;2023-03-29T05:28:49;-12.60;99.90
21459;DHT22;10891;49.350;19.386;2023-03-29T05:31:16;-12.60;99.90
21459;DHT22;10891;49.350;19.386;2023-03-29T05:33:46;-12.70;99.90
21459;DHT22;10891;49.350;19.386;2023-03-29T05:36:15;-12.90;99.90
21459;DHT22;10891;49.350;19.386;2023-03-29T05:38:43;-12.80;99.90
21459;DHT22;10891;49.350;19.386;2023-03-29T05:41:11;-12.70;99.90
21459;DHT22;10891;49.350;19.386;2023-03-29T05:43:38;-12.60;99.90
21459;DHT22;10891;49.350;19.386;2023-03-29T05:46:05;-12.50;99.90
21459;DHT22;10891;49.350;19.386;2023-03-29T05:48:32;-12.10;99.90
21459;DHT22;10891;49.350;19.386;2023-03-29T05:51:01;-11.70;99.90
21459;DHT22;10891;49.350;19.386;2023-03-29T05:53:30;-11.40;99.90
21459;DHT22;10891;49.350;19.386;2023-03-29T05:55:57;-10.60;99.90
21459;DHT22;10891;49.350;19.386;2023-03-29T05:58:24;-9.00;99.90
21459;DHT22;10891;49.350;19.386;2023-03-29T06:00:53;-7.50;99.90
21459;DHT22;10891;49.350;19.386;2023-03-29T06:03:21;-6.40;99.90
21459;DHT22;10891;49.350;19.386;2023-03-29T06:05:55;-5.80;99.90
21459;DHT22;10891;49.350;19.386;2023-03-29T06:08:22;-5.40;99.90
21459;DHT22;10891;49.350;19.386;2023-03-29T06:10:56;-5.10;99.90
21459;DHT22;10891;49.350;19.386;2023-03-29T06:13:23;-5.00;99.90
21459;DHT22;10891;49.350;19.386;2023-03-29T06:15:50;-5.30;99.90
21459;DHT22;10891;49.350;19.386;2023-03-29T06:18:17;-5.10;99.90
21459;DHT22;10891;49.350;19.386;2023-03-29T06:20:47;-5.10;99.90
21459;DHT22;10891;49.350;19.386;2023-03-29T06:23:15;-4.70;99.90
21459;DHT22;10891;49.350;19.386;2023-03-29T06:25:42;-4.00;99.90
21459;DHT22;10891;49.350;19.386;2023-03-29T06:28:11;-3.60;99.90
21459;DHT22;10891;49.350;19.386;2023-03-29T06:30:39;-3.00;99.90
21459;DHT22;10891;49.350;19.386;2023-03-29T06:33:06;-2.90;99.90
21459;DHT22;10891;49.350;19.386;2023-03-29T06:35:34;-3.00;99.90
21459;DHT22;10891;49.350;19.386;2023-03-29T06:38:02;-3.40;99.90
21459;DHT22;10891;49.350;19.386;2023-03-29T06:40:29;-3.90;99.90
21459;DHT22;10891;49.350;19.386;2023-03-29T06:42:57;-4.10;99.90
21459;DHT22;10891;49.350;19.386;2023-03-29T06:45:26;-4.30;99.90
21459;DHT22;10891;49.350;19.386;2023-03-29T06:47:53;-4.20;99.90
21459;DHT22;10891;49.350;19.386;2023-03-29T06:50:20;-4.10;99.90
21459;DHT22;10891;49.350;19.386;2023-03-29T06:52:48;-3.90;99.90
21459;DHT22;10891;49.350;19.386;2023-03-29T06:55:15;-3.70;99.90
21459;DHT22;10891;49.350;19.386;2023-03-29T06:57:43;-3.40;99.90
21459;DHT22;10891;49.350;19.386;2023-03-29T07:00:11;-3.30;99.90
21459;DHT22;10891;49.350;19.386;2023-03-29T07:02:44;-3.20;99.90
21459;DHT22;10891;49.350;19.386;2023-03-29T07:05:13;-3.20;99.90
21459;DHT22;10891;49.350;19.386;2023-03-29T07:07:42;-3.10;99.90
21459;DHT22;10891;49.350;19.386;2023-03-29T07:10:22;-3.10;99.90
21459;DHT22;10891;49.350;19.386;2023-03-29T07:12:50;-3.20;99.90
21459;DHT22;10891;49.350;19.386;2023-03-29T07:15:18;-3.20;99.90
21459;DHT22;10891;49.350;19.386;2023-03-29T07:17:47;-3.10;99.90
21459;DHT22;10891;49.350;19.386;2023-03-29T07:20:14;-3.10;99.90
21459;DHT22;10891;49.350;19.386;2023-03-29T07:22:42;-3.20;99.90
21459;DHT22;10891;49.350;19.386;2023-03-29T07:25:09;-3.30;99.90
21459;DHT22;10891;49.350;19.386;2023-03-29T07:27:37;-3.30;99.90
21459;DHT22;10891;49.350;19.386;2023-03-29T07:30:06;-3.40;99.90
21459;DHT22;10891;49.350;19.386;2023-03-29T07:32:35;-3.50;99.90
21459;DHT22;10891;49.350;19.386;2023-03-29T07:35:06;-3.60;99.90
21459;DHT22;10891;49.350;19.386;2023-03-29T07:37:34;-3.50;99.90
21459;DHT22;10891;49.350;19.386;2023-03-29T07:40:03;-3.40;99.90
21459;DHT22;10891;49.350;19.386;2023-03-29T07:42:40;-3.40;99.90
21459;DHT22;10891;49.350;19.386;2023-03-29T07:45:09;-3.20;99.90
21459;DHT22;10891;49.350;19.386;2023-03-29T07:47:38;-3.00;99.90
21459;DHT22;10891;49.350;19.386;2023-03-29T07:50:08;-2.90;99.90
21459;DHT22;10891;49.350;19.386;2023-03-29T07:52:36;-2.80;99.90
21459;DHT22;10891;49.350;19.386;2023-03-29T07:55:03;-2.80;99.90
21459;DHT22;10891;49.350;19.386;2023-03-29T07:57:30;-2.70;99.90
21459;DHT22;10891;49.350;19.386;2023-03-29T07:59:57;-2.50;99.90
21459;DHT22;10891;49.350;19.386;2023-03-29T08:02:24;-2.30;99.90
21459;DHT22;10891;49.350;19.386;2023-03-29T08:04:52;-2.10;99.90
21459;DHT22;10891;49.350;19.386;2023-03-29T08:07:21;-2.00;99.90
21459;DHT22;10891;49.350;19.386;2023-03-29T08:09:48;-1.90;99.90
21459;DHT22;10891;49.350;19.386;2023-03-29T08:12:16;-1.80;99.90
21459;DHT22;10891;49.350;19.386;2023-03-29T08:14:43;-1.70;99.90
21459;DHT22;10891;49.350;19.386;2023-03-29T08:17:10;-1.50;99.90
21459;DHT22;10891;49.350;19.386;2023-03-29T08:19:37;-1.30;99.90
21459;DHT22;10891;49.350;19.386;2023-03-29T08:22:04;-1.10;99.90
21459;DHT22;10891;49.350;19.386;2023-03-29T08:24:32;-0.90;99.90
21459;DHT22;10891;49.350;19.386;2023-03-29T08:26:59;-0.70;99.90
21459;DHT22;10891;49.350;19.386;2023-03-29T08:29:26;-0.50;99.90
21459;DHT22;10891;49.350;19.386;2023-03-29T08:31:53;-0.40;99.90
21459;DHT22;10891;49.350;19.386;2023-03-29T08:34:20;-0.30;99.90
21459;DHT22;10891;49.350;19.386;2023-03-29T08:36:47;-0.10;99.90
21459;DHT22;10891;49.350;19.386;2023-03-29T08:39:14;0.00;99.90
21459;DHT22;10891;49.350;19.386;2023-03-29T08:41:51;0.10;99.90
21459;DHT22;10891;49.350;19.386;2023-03-29T08:44:42;0.30;99.90
21459;DHT22;10891;49.350;19.386;2023-03-29T08:47:14;0.50;99.90
21459;DHT22;10891;49.350;19.386;2023-03-29T08:49:47;0.70;99.90
21459;DHT22;10891;49.350;19.386;2023-03-29T08:52:20;0.90;99.90
21459;DHT22;10891;49.350;19.386;2023-03-29T08:54:51;0.90;99.90
21459;DHT22;10891;49.350;19.386;2023-03-29T08:57:23;1.00;99.90
21459;DHT22;10891;49.350;19.386;2023-03-29T08:59:52;1.10;99.90
21459;DHT22;10891;49.350;19.386;2023-03-29T09:02:23;1.20;99.90
21459;DHT22;10891;49.350;19.386;2023-03-29T09:04:52;1.10;99.90
21459;DHT22;10891;49.350;19.386;2023-03-29T09:07:22;1.00;99.90
21459;DHT22;10891;49.350;19.386;2023-03-29T09:09:49;1.10;99.90
21459;DHT22;10891;49.350;19.386;2023-03-29T09:12:26;1.20;99.90
21459;DHT22;10891;49.350;19.386;2023-03-29T09:15:03;1.20;99.90
21459;DHT22;10891;49.350;19.386;2023-03-29T09:17:49;1.40;99.90
21459;DHT22;10891;49.350;19.386;2023-03-29T09:20:29;1.50;99.90
21459;DHT22;10891;49.350;19.386;2023-03-29T09:23:06;1.50;99.90
21459;DHT22;10891;49.350;19.386;2023-03-29T09:25:46;1.40;99.90
21459;DHT22;10891;49.350;19.386;2023-03-29T09:28:18;1.40;99.90
21459;DHT22;10891;49.350;19.386;2023-03-29T09:30:52;1.50;99.90
21459;DHT22;10891;49.350;19.386;2023-03-29T09:33:24;1.40;99.90
21459;DHT22;10891;49.350;19.386;2023-03-29T09:35:57;1.50;99.90
21459;DHT22;10891;49.350;19.386;2023-03-29T09:38:28;1.70;99.90
21459;DHT22;10891;49.350;19.386;2023-03-29T09:40:59;1.90;99.90
21459;DHT22;10891;49.350;19.386;2023-03-29T09:43:32;1.90;99.90
21459;DHT22;10891;49.350;19.386;2023-03-29T09:46:03;2.10;99.90
21459;DHT22;10891;49.350;19.386;2023-03-29T09:48:37;2.20;99.90
21459;DHT22;10891;49.350;19.386;2023-03-29T09:51:08;2.10;99.90
21459;DHT22;10891;49.350;19.386;2023-03-29T09:53:36;2.30;99.90
21459;DHT22;10891;49.350;19.386;2023-03-29T09:56:04;2.50;99.90
21459;DHT22;10891;49.350;19.386;2023-03-29T09:58:34;2.50;99.90
21459;DHT22;10891;49.350;19.386;2023-03-29T10:01:05;2.50;99.90
21459;DHT22;10891;49.350;19.386;2023-03-29T10:03:34;2.50;99.90
21459;DHT22;10891;49.350;19.386;2023-03-29T10:06:07;2.40;99.90
21459;DHT22;10891;49.350;19.386;2023-03-29T10:08:38;2.60;99.90
21459;DHT22;10891;49.350;19.386;2023-03-29T10:11:11;2.60;99.90
21459;DHT22;10891;49.350;19.386;2023-03-29T10:13:46;2.60;99.90
21459;DHT22;10891;49.350;19.386;2023-03-29T10:16:19;3.00;99.90
21459;DHT22;10891;49.350;19.386;2023-03-29T10:18:46;3.00;99.90
21459;DHT22;10891;49.350;19.386;2023-03-29T10:21:16;2.80;99.90
21459;DHT22;10891;49.350;19.386;2023-03-29T10:23:46;3.00;99.90
21459;DHT22;10891;49.350;19.386;2023-03-29T10:26:22;3.20;99.90
21459;DHT22;10891;49.350;19.386;2023-03-29T10:28:53;3.50;99.90
21459;DHT22;10891;49.350;19.386;2023-03-29T10:31:25;3.60;99.90
21459;DHT22;10891;49.350;19.386;2023-03-29T10:33:56;3.60;99.90
21459;DHT22;10891;49.350;19.386;2023-03-29T10:36:25;3.60;99.90
21459;DHT22;10891;49.350;19.386;2023-03-29T10:38:55;3.60;99.90
21459;DHT22;10891;49.350;19.386;2023-03-29T10:41:24;3.40;99.90
21459;DHT22;10891;49.350;19.386;2023-03-29T10:43:53;3.40;99.90
21459;DHT22;10891;49.350;19.386;2023-03-29T10:46:22;3.60;99.90
21459;DHT22;10891;49.350;19.386;2023-03-29T10:48:55;3.70;99.90
21459;DHT22;10891;49.350;19.386;2023-03-29T10:51:25;3.80;99.90
21459;DHT22;10891;49.350;19.386;2023-03-29T10:53:56;3.80;99.90
21459;DHT22;10891;49.350;19.386;2023-03-29T10:56:31;3.70;99.90
21459;DHT22;10891;49.350;19.386;2023-03-29T11:02:18;3.90;99.90
21459;DHT22;10891;49.350;19.386;2023-03-29T11:04:54;3.80;99.90
21459;DHT22;10891;49.350;19.386;2023-03-29T11:07:27;4.10;99.90
21459;DHT22;10891;49.350;19.386;2023-03-29T11:10:16;4.20;99.90
21459;DHT22;10891;49.350;19.386;2023-03-29T11:12:49;4.30;99.90
21459;DHT22;10891;49.350;19.386;2023-03-29T11:15:35;4.50;99.90
21459;DHT22;10891;49.350;19.386;2023-03-29T11:18:24;4.60;99.90
21459;DHT22;10891;49.350;19.386;2023-03-29T11:20:56;4.50;99.90
21459;DHT22;10891;49.350;19.386;2023-03-29T11:23:37;4.60;99.90
21459;DHT22;10891;49.350;19.386;2023-03-29T11:26:13;4.50;99.90
21459;DHT22;10891;49.350;19.386;2023-03-29T11:28:46;4.70;99.90
21459;DHT22;10891;49.350;19.386;2023-03-29T11:31:26;4.90;99.90
21459;DHT22;10891;49.350;19.386;2023-03-29T11:34:06;4.70;99.90
21459;DHT22;10891;49.350;19.386;2023-03-29T11:36:45;4.90;99.90
21459;DHT22;10891;49.350;19.386;2023-03-29T11:39:22;5.10;99.90
21459;DHT22;10891;49.350;19.386;2023-03-29T11:41:57;5.20;99.90
21459;DHT22;10891;49.350;19.386;2023-03-29T11:44:29;5.30;99.90
21459;DHT22;10891;49.350;19.386;2023-03-29T11:47:00;5.40;99.90
21459;DHT22;10891;49.350;19.386;2023-03-29T11:49:31;5.60;99.90
21459;DHT22;10891;49.350;19.386;2023-03-29T11:52:06;5.70;99.90
21459;DHT22;10891;49.350;19.386;2023-03-29T11:54:38;5.90;99.90
21459;DHT22;10891;49.350;19.386;2023-03-29T11:57:13;6.00;99.90
21459;DHT22;10891;49.350;19.386;2023-03-29T11:59:48;5.80;99.90
21459;DHT22;10891;49.350;19.386;2023-03-29T12:02:21;5.70;99.90
21459;DHT22;10891;49.350;19.386;2023-03-29T12:04:53;5.50;99.90
21459;DHT22;10891;49.350;19.386;2023-03-29T12:07:26;5.30;99.90
21459;DHT22;10891;49.350;19.386;2023-03-29T12:09:58;5.20;99.90
21459;DHT22;10891;49.350;19.386;2023-03-29T12:12:31;5.40;99.90
21459;DHT22;10891;49.350;19.386;2023-03-29T12:15:06;5.80;99.90
21459;DHT22;10891;49.350;19.386;2023-03-29T12:17:42;6.10;99.90
21459;DHT22;10891;49.350;19.386;2023-03-29T12:20:14;6.50;99.90
21459;DHT22;10891;49.350;19.386;2023-03-29T12:22:46;6.50;99.90
21459;DHT22;10891;49.350;19.386;2023-03-29T12:25:18;6.60;99.90
21459;DHT22;10891;49.350;19.386;2023-03-29T12:28:00;6.90;99.90
21459;DHT22;10891;49.350;19.386;2023-03-29T12:30:41;7.10;99.90
21459;DHT22;10891;49.350;19.386;2023-03-29T12:33:29;7.20;99.90
21459;DHT22;10891;49.350;19.386;2023-03-29T12:36:09;7.60;99.90
21459;DHT22;10891;49.350;19.386;2023-03-29T12:38:40;7.60;99.90
21459;DHT22;10891;49.350;19.386;2023-03-29T12:41:15;7.60;99.90
21459;DHT22;10891;49.350;19.386;2023-03-29T12:43:44;7.60;99.90
21459;DHT22;10891;49.350;19.386;2023-03-29T12:46:14;7.50;99.90
21459;DHT22;10891;49.350;19.386;2023-03-29T12:48:46;7.30;99.90
21459;DHT22;10891;49.350;19.386;2023-03-29T12:51:16;7.20;99.90
21459;DHT22;10891;49.350;19.386;2023-03-29T12:53:46;7.10;99.90
21459;DHT22;10891;49.350;19.386;2023-03-29T12:56:16;7.00;99.90
21459;DHT22;10891;49.350;19.386;2023-03-29T12:58:54;7.00;99.90
21459;DHT22;10891;49.350;19.386;2023-03-29T13:01:26;6.40;99.90
21459;DHT22;10891;49.350;19.386;2023-03-29T13:04:14;6.10;99.90
21459;DHT22;10891;49.350;19.386;2023-03-29T13:07:00;6.10;99.90
21459;DHT22;10891;49.350;19.386;2023-03-29T13:09:33;6.70;99.90
21459;DHT22;10891;49.350;19.386;2023-03-29T13:12:23;6.90;99.90
21459;DHT22;10891;49.350;19.386;2023-03-29T13:14:52;6.80;99.90
21459;DHT22;10891;49.350;19.386;2023-03-29T13:17:34;7.20;99.90
21459;DHT22;10891;49.350;19.386;2023-03-29T13:20:33;7.50;99.90
21459;DHT22;10891;49.350;19.386;2023-03-29T13:23:16;7.80;99.90
21459;DHT22;10891;49.350;19.386;2023-03-29T13:26:00;8.00;99.90
21459;DHT22;10891;49.350;19.386;2023-03-29T13:28:36;8.00;99.90
21459;DHT22;10891;49.350;19.386;2023-03-29T13:31:13;7.70;99.90
21459;DHT22;10891;49.350;19.386;2023-03-29T13:33:52;8.00;99.90
21459;DHT22;10891;49.350;19.386;2023-03-29T13:36:47;8.20;99.90
21459;DHT22;10891;49.350;19.386;2023-03-29T13:39:19;8.30;99.90
21459;DHT22;10891;49.350;19.386;2023-03-29T13:41:47;8.40;99.90
21459;DHT22;10891;49.350;19.386;2023-03-29T13:44:27;8.40;99.90
21459;DHT22;10891;49.350;19.386;2023-03-29T13:47:03;8.50;99.90
21459;DHT22;10891;49.350;19.386;2023-03-29T13:49:33;8.80;99.90
21459;DHT22;10891;49.350;19.386;2023-03-29T13:52:10;9.10;99.90
21459;DHT22;10891;49.350;19.386;2023-03-29T13:54:43;9.30;99.90
21459;DHT22;10891;49.350;19.386;2023-03-29T13:57:15;9.50;99.90
21459;DHT22;10891;49.350;19.386;2023-03-29T13:59:49;9.40;99.90
21459;DHT22;10891;49.350;19.386;2023-03-29T14:02:35;9.70;99.90
21459;DHT22;10891;49.350;19.386;2023-03-29T14:05:05;9.50;99.90
21459;DHT22;10891;49.350;19.386;2023-03-29T14:07:38;9.20;99.90
21459;DHT22;10891;49.350;19.386;2023-03-29T14:10:06;9.00;99.90
21459;DHT22;10891;49.350;19.386;2023-03-29T14:12:36;8.90;99.90
21459;DHT22;10891;49.350;19.386;2023-03-29T14:15:05;8.60;99.90
21459;DHT22;10891;49.350;19.386;2023-03-29T14:17:35;8.30;99.90
21459;DHT22;10891;49.350;19.386;2023-03-29T14:20:04;8.00;99.90
21459;DHT22;10891;49.350;19.386;2023-03-29T14:22:36;7.70;99.90
21459;DHT22;10891;49.350;19.386;2023-03-29T14:25:11;7.60;99.90
21459;DHT22;10891;49.350;19.386;2023-03-29T14:27:39;7.90;99.90
21459;DHT22;10891;49.350;19.386;2023-03-29T14:30:22;8.30;99.90
21459;DHT22;10891;49.350;19.386;2023-03-29T14:32:51;8.50;99.90
21459;DHT22;10891;49.350;19.386;2023-03-29T14:35:18;8.80;99.90
21459;DHT22;10891;49.350;19.386;2023-03-29T14:37:47;8.70;99.90
21459;DHT22;10891;49.350;19.386;2023-03-29T14:40:17;8.90;99.90
21459;DHT22;10891;49.350;19.386;2023-03-29T14:42:45;9.10;99.90
21459;DHT22;10891;49.350;19.386;2023-03-29T14:45:15;9.10;99.90
21459;DHT22;10891;49.350;19.386;2023-03-29T14:47:44;9.60;99.90
21459;DHT22;10891;49.350;19.386;2023-03-29T14:50:17;11.10;99.90
21459;DHT22;10891;49.350;19.386;2023-03-29T14:52:46;11.60;99.90
21459;DHT22;10891;49.350;19.386;2023-03-29T14:55:15;11.40;99.90
21459;DHT22;10891;49.350;19.386;2023-03-29T14:57:49;10.80;99.90
21459;DHT22;10891;49.350;19.386;2023-03-29T15:00:26;10.90;99.90
21459;DHT22;10891;49.350;19.386;2023-03-29T15:02:55;11.70;99.90
21459;DHT22;10891;49.350;19.386;2023-03-29T15:05:35;12.60;99.90
21459;DHT22;10891;49.350;19.386;2023-03-29T15:08:05;14.20;99.90
21459;DHT22;10891;49.350;19.386;2023-03-29T15:10:35;13.90;99.90
21459;DHT22;10891;49.350;19.386;2023-03-29T15:13:04;13.20;99.90
21459;DHT22;10891;49.350;19.386;2023-03-29T15:15:34;13.00;99.90
21459;DHT22;10891;49.350;19.386;2023-03-29T15:18:03;12.80;99.90
21459;DHT22;10891;49.350;19.386;2023-03-29T15:20:33;12.80;99.90
21459;DHT22;10891;49.350;19.386;2023-03-29T15:23:07;11.50;99.90
21459;DHT22;10891;49.350;19.386;2023-03-29T15:25:36;10.70;99.90
21459;DHT22;10891;49.350;19.386;2023-03-29T15:28:04;9.80;99.90
21459;DHT22;10891;49.350;19.386;2023-03-29T15:30:34;9.10;99.90
21459;DHT22;10891;49.350;19.386;2023-03-29T15:35:51;8.70;99.90
21459;DHT22;10891;49.350;19.386;2023-03-29T15:38:25;8.20;99.90
21459;DHT22;10891;49.350;19.386;2023-03-29T15:40:52;7.80;99.90
21459;DHT22;10891;49.350;19.386;2023-03-29T15:43:19;7.40;99.90
21459;DHT22;10891;49.350;19.386;2023-03-29T15:45:47;7.20;99.90